sensor_id;sensor_type;location;lat;lon;timestamp;P1;durP1;ratioP1;P2;durP2;ratioP2
434;SDS011;204;48.942;9.256;2022-09-06T00:01:16;4.00;;;3.80;;
434;SDS011;204;48.942;9.256;2022-09-06T00:03:42;6.37;;;3.73;;
434;SDS011;204;48.942;9.256;2022-09-06T00:06:18;5.80;;;4.60;;
434;SDS011;204;48.942;9.256;2022-09-06T00:08:44;4.60;;;4.30;;
434;SDS011;204;48.942;9.256;2022-09-06T00:11:11;5.30;;;3.73;;
434;SDS011;204;48.942;9.256;2022-09-06T00:13:37;4.40;;;3.93;;
434;SDS011;204;48.942;9.256;2022-09-06T00:16:04;4.37;;;4.10;;
434;SDS011;204;48.942;9.256;2022-09-06T00:18:35;5.47;;;4.47;;
434;SDS011;204;48.942;9.256;2022-09-06T00:21:01;6.47;;;5.17;;
434;SDS011;204;48.942;9.256;2022-09-06T00:23:27;7.03;;;4.00;;
434;SDS011;204;48.942;9.256;2022-09-06T00:25:53;4.57;;;4.20;;
434;SDS011;204;48.942;9.256;2022-09-06T00:28:26;5.17;;;4.10;;
434;SDS011;204;48.942;9.256;2022-09-06T00:30:52;4.60;;;3.93;;
434;SDS011;204;48.942;9.256;2022-09-06T00:33:18;6.30;;;5.03;;
434;SDS011;204;48.942;9.256;2022-09-06T00:35:43;3.70;;;3.50;;
434;SDS011;204;48.942;9.256;2022-09-06T00:38:11;4.60;;;4.30;;
434;SDS011;204;48.942;9.256;2022-09-06T00:40:37;4.17;;;3.93;;
434;SDS011;204;48.942;9.256;2022-09-06T00:43:03;6.10;;;4.00;;
434;SDS011;204;48.942;9.256;2022-09-06T00:45:28;5.53;;;3.63;;
434;SDS011;204;48.942;9.256;2022-09-06T00:47:55;4.37;;;4.07;;
434;SDS011;204;48.942;9.256;2022-09-06T00:50:23;5.27;;;4.30;;
434;SDS011;204;48.942;9.256;2022-09-06T00:52:49;3.90;;;3.70;;
434;SDS011;204;48.942;9.256;2022-09-06T00:55:16;4.13;;;3.80;;
434;SDS011;204;48.942;9.256;2022-09-06T00:57:43;5.40;;;4.03;;
434;SDS011;204;48.942;9.256;2022-09-06T01:00:10;4.93;;;3.50;;
434;SDS011;204;48.942;9.256;2022-09-06T01:02:36;6.07;;;4.43;;
434;SDS011;204;48.942;9.256;2022-09-06T01:05:02;4.37;;;3.90;;
434;SDS011;204;48.942;9.256;2022-09-06T01:12:51;5.87;;;4.33;;
434;SDS011;204;48.942;9.256;2022-09-06T01:18:30;4.80;;;4.20;;
434;SDS011;204;48.942;9.256;2022-09-06T01:21:15;4.70;;;4.13;;
434;SDS011;204;48.942;9.256;2022-09-06T01:29:01;4.37;;;4.07;;
434;SDS011;204;48.942;9.256;2022-09-06T01:31:44;4.00;;;3.80;;
434;SDS011;204;48.942;9.256;2022-09-06T01:34:30;4.90;;;4.60;;
434;SDS011;204;48.942;9.256;2022-09-06T01:37:02;6.50;;;4.53;;
434;SDS011;204;48.942;9.256;2022-09-06T01:39:34;5.00;;;4.70;;
434;SDS011;204;48.942;9.256;2022-09-06T01:42:08;3.87;;;3.67;;
434;SDS011;204;48.942;9.256;2022-09-06T01:44:34;6.23;;;4.40;;
434;SDS011;204;48.942;9.256;2022-09-06T01:53:03;5.87;;;4.67;;
434;SDS011;204;48.942;9.256;2022-09-06T01:55:23;4.70;;;4.30;;
434;SDS011;204;48.942;9.256;2022-09-06T01:58:01;4.63;;;4.33;;
434;SDS011;204;48.942;9.256;2022-09-06T02:00:29;4.87;;;4.57;;
434;SDS011;204;48.942;9.256;2022-09-06T02:05:43;4.63;;;4.33;;
434;SDS011;204;48.942;9.256;2022-09-06T02:08:15;4.30;;;4.03;;
434;SDS011;204;48.942;9.256;2022-09-06T02:13:20;5.10;;;4.73;;
434;SDS011;204;48.942;9.256;2022-09-06T02:15:50;5.00;;;4.23;;
434;SDS011;204;48.942;9.256;2022-09-06T02:18:21;5.20;;;4.53;;
434;SDS011;204;48.942;9.256;2022-09-06T02:20:52;4.90;;;4.60;;
434;SDS011;204;48.942;9.256;2022-09-06T02:23:22;7.33;;;4.77;;
434;SDS011;204;48.942;9.256;2022-09-06T02:25:52;4.43;;;4.13;;
434;SDS011;204;48.942;9.256;2022-09-06T02:28:25;5.33;;;4.43;;
434;SDS011;204;48.942;9.256;2022-09-06T02:30:52;4.53;;;4.20;;
434;SDS011;204;48.942;9.256;2022-09-06T02:33:26;5.53;;;5.23;;
434;SDS011;204;48.942;9.256;2022-09-06T02:35:56;5.47;;;4.47;;
434;SDS011;204;48.942;9.256;2022-09-06T02:38:28;5.37;;;5.07;;
434;SDS011;204;48.942;9.256;2022-09-06T02:40:54;5.70;;;5.13;;
434;SDS011;204;48.942;9.256;2022-09-06T02:43:20;5.40;;;5.10;;
434;SDS011;204;48.942;9.256;2022-09-06T02:45:46;5.27;;;4.97;;
434;SDS011;204;48.942;9.256;2022-09-06T02:48:12;6.80;;;5.77;;
434;SDS011;204;48.942;9.256;2022-09-06T02:50:38;6.40;;;5.10;;
434;SDS011;204;48.942;9.256;2022-09-06T02:53:05;7.83;;;5.60;;
434;SDS011;204;48.942;9.256;2022-09-06T02:55:33;6.90;;;6.10;;
434;SDS011;204;48.942;9.256;2022-09-06T02:57:59;8.17;;;6.83;;
434;SDS011;204;48.942;9.256;2022-09-06T03:00:25;7.40;;;7.00;;
434;SDS011;204;48.942;9.256;2022-09-06T03:02:51;6.80;;;6.40;;
434;SDS011;204;48.942;9.256;2022-09-06T03:05:16;7.43;;;6.43;;
434;SDS011;204;48.942;9.256;2022-09-06T03:07:42;8.37;;;6.83;;
434;SDS011;204;48.942;9.256;2022-09-06T03:10:08;7.90;;;7.30;;
434;SDS011;204;48.942;9.256;2022-09-06T03:12:34;7.07;;;6.60;;
434;SDS011;204;48.942;9.256;2022-09-06T03:14:59;9.37;;;7.13;;
434;SDS011;204;48.942;9.256;2022-09-06T03:17:25;7.37;;;6.97;;
434;SDS011;204;48.942;9.256;2022-09-06T03:19:50;8.50;;;7.53;;
434;SDS011;204;48.942;9.256;2022-09-06T03:22:16;7.70;;;7.30;;
434;SDS011;204;48.942;9.256;2022-09-06T03:24:42;8.20;;;7.70;;
434;SDS011;204;48.942;9.256;2022-09-06T03:27:07;11.60;;;9.23;;
434;SDS011;204;48.942;9.256;2022-09-06T03:29:33;8.53;;;8.03;;
434;SDS011;204;48.942;9.256;2022-09-06T03:31:58;7.70;;;7.30;;
434;SDS011;204;48.942;9.256;2022-09-06T03:34:24;8.97;;;7.73;;
434;SDS011;204;48.942;9.256;2022-09-06T03:36:49;10.60;;;7.90;;
434;SDS011;204;48.942;9.256;2022-09-06T03:39:15;11.63;;;8.33;;
434;SDS011;204;48.942;9.256;2022-09-06T03:41:40;9.87;;;8.50;;
434;SDS011;204;48.942;9.256;2022-09-06T03:44:06;10.37;;;9.13;;
434;SDS011;204;48.942;9.256;2022-09-06T03:46:32;9.87;;;8.77;;
434;SDS011;204;48.942;9.256;2022-09-06T03:48:57;10.03;;;9.07;;
434;SDS011;204;48.942;9.256;2022-09-06T03:51:23;9.67;;;9.17;;
434;SDS011;204;48.942;9.256;2022-09-06T03:53:49;9.70;;;9.20;;
434;SDS011;204;48.942;9.256;2022-09-06T03:56:15;9.20;;;8.70;;
434;SDS011;204;48.942;9.256;2022-09-06T03:58:40;10.17;;;9.67;;
434;SDS011;204;48.942;9.256;2022-09-06T04:01:08;9.20;;;8.70;;
434;SDS011;204;48.942;9.256;2022-09-06T04:03:35;9.90;;;9.40;;
434;SDS011;204;48.942;9.256;2022-09-06T04:06:01;13.73;;;8.70;;
434;SDS011;204;48.942;9.256;2022-09-06T04:08:28;10.10;;;9.30;;
434;SDS011;204;48.942;9.256;2022-09-06T04:10:54;14.03;;;10.10;;
434;SDS011;204;48.942;9.256;2022-09-06T04:13:22;13.13;;;9.87;;
434;SDS011;204;48.942;9.256;2022-09-06T04:15:48;11.20;;;9.00;;
434;SDS011;204;48.942;9.256;2022-09-06T04:18:15;10.07;;;9.33;;
434;SDS011;204;48.942;9.256;2022-09-06T04:20:41;12.60;;;9.60;;
434;SDS011;204;48.942;9.256;2022-09-06T04:23:07;11.70;;;10.10;;
434;SDS011;204;48.942;9.256;2022-09-06T04:25:33;11.90;;;9.30;;
434;SDS011;204;48.942;9.256;2022-09-06T04:27:58;11.33;;;10.20;;
434;SDS011;204;48.942;9.256;2022-09-06T04:30:24;10.90;;;10.30;;
434;SDS011;204;48.942;9.256;2022-09-06T04:32:50;9.83;;;9.37;;
434;SDS011;204;48.942;9.256;2022-09-06T04:35:15;10.97;;;10.37;;
434;SDS011;204;48.942;9.256;2022-09-06T04:37:41;11.80;;;10.07;;
434;SDS011;204;48.942;9.256;2022-09-06T04:40:06;13.40;;;10.13;;
434;SDS011;204;48.942;9.256;2022-09-06T04:42:33;9.67;;;9.17;;
434;SDS011;204;48.942;9.256;2022-09-06T04:44:59;9.60;;;9.10;;
434;SDS011;204;48.942;9.256;2022-09-06T04:47:24;10.53;;;9.47;;
434;SDS011;204;48.942;9.256;2022-09-06T04:49:51;11.10;;;10.20;;
434;SDS011;204;48.942;9.256;2022-09-06T04:52:17;11.27;;;10.37;;
434;SDS011;204;48.942;9.256;2022-09-06T04:54:43;10.67;;;10.10;;
434;SDS011;204;48.942;9.256;2022-09-06T04:57:09;10.67;;;10.07;;
434;SDS011;204;48.942;9.256;2022-09-06T04:59:35;10.03;;;9.53;;
434;SDS011;204;48.942;9.256;2022-09-06T05:02:01;12.60;;;10.60;;
434;SDS011;204;48.942;9.256;2022-09-06T05:04:27;11.10;;;10.47;;
434;SDS011;204;48.942;9.256;2022-09-06T05:07:02;11.10;;;10.50;;
434;SDS011;204;48.942;9.256;2022-09-06T05:09:30;10.73;;;10.13;;
434;SDS011;204;48.942;9.256;2022-09-06T05:11:56;10.63;;;10.03;;
434;SDS011;204;48.942;9.256;2022-09-06T05:14:22;11.43;;;9.00;;
434;SDS011;204;48.942;9.256;2022-09-06T05:16:47;13.17;;;10.60;;
434;SDS011;204;48.942;9.256;2022-09-06T05:19:14;11.03;;;10.43;;
434;SDS011;204;48.942;9.256;2022-09-06T05:21:40;10.33;;;9.83;;
434;SDS011;204;48.942;9.256;2022-09-06T05:24:05;10.43;;;9.90;;
434;SDS011;204;48.942;9.256;2022-09-06T05:26:31;11.40;;;10.80;;
434;SDS011;204;48.942;9.256;2022-09-06T05:28:57;12.03;;;11.40;;
434;SDS011;204;48.942;9.256;2022-09-06T05:31:26;10.97;;;10.37;;
434;SDS011;204;48.942;9.256;2022-09-06T05:33:52;13.47;;;12.77;;
434;SDS011;204;48.942;9.256;2022-09-06T05:36:18;13.57;;;12.87;;
434;SDS011;204;48.942;9.256;2022-09-06T05:38:44;10.47;;;9.93;;
434;SDS011;204;48.942;9.256;2022-09-06T05:41:10;12.67;;;10.70;;
434;SDS011;204;48.942;9.256;2022-09-06T05:43:35;13.70;;;11.17;;
434;SDS011;204;48.942;9.256;2022-09-06T05:46:01;10.83;;;10.23;;
434;SDS011;204;48.942;9.256;2022-09-06T05:48:27;10.10;;;9.60;;
434;SDS011;204;48.942;9.256;2022-09-06T05:50:59;10.00;;;9.50;;
434;SDS011;204;48.942;9.256;2022-09-06T05:53:36;13.23;;;10.17;;
434;SDS011;204;48.942;9.256;2022-09-06T05:56:07;9.10;;;8.60;;
434;SDS011;204;48.942;9.256;2022-09-06T05:58:33;9.43;;;8.93;;
434;SDS011;204;48.942;9.256;2022-09-06T06:01:05;9.30;;;8.80;;
434;SDS011;204;48.942;9.256;2022-09-06T06:03:54;11.57;;;10.60;;
434;SDS011;204;48.942;9.256;2022-09-06T06:06:25;11.67;;;10.20;;
434;SDS011;204;48.942;9.256;2022-09-06T06:08:55;15.87;;;13.40;;
434;SDS011;204;48.942;9.256;2022-09-06T06:11:21;15.40;;;14.17;;
434;SDS011;204;48.942;9.256;2022-09-06T06:13:47;30.93;;;19.37;;
434;SDS011;204;48.942;9.256;2022-09-06T06:16:14;13.07;;;11.00;;
434;SDS011;204;48.942;9.256;2022-09-06T06:18:41;11.13;;;10.53;;
434;SDS011;204;48.942;9.256;2022-09-06T06:23:35;10.83;;;9.93;;
434;SDS011;204;48.942;9.256;2022-09-06T06:26:00;15.93;;;9.80;;
434;SDS011;204;48.942;9.256;2022-09-06T06:28:26;10.03;;;9.27;;
434;SDS011;204;48.942;9.256;2022-09-06T06:30:52;9.43;;;8.93;;
434;SDS011;204;48.942;9.256;2022-09-06T06:33:18;10.27;;;9.67;;
434;SDS011;204;48.942;9.256;2022-09-06T06:36:00;9.40;;;8.90;;
434;SDS011;204;48.942;9.256;2022-09-06T06:41:01;19.90;;;12.87;;
434;SDS011;204;48.942;9.256;2022-09-06T06:43:28;9.97;;;9.47;;
434;SDS011;204;48.942;9.256;2022-09-06T06:46:00;13.90;;;9.10;;
434;SDS011;204;48.942;9.256;2022-09-06T06:48:28;23.07;;;14.80;;
434;SDS011;204;48.942;9.256;2022-09-06T06:50:53;17.53;;;12.50;;
434;SDS011;204;48.942;9.256;2022-09-06T06:53:19;19.00;;;12.40;;
434;SDS011;204;48.942;9.256;2022-09-06T06:55:45;13.50;;;10.60;;
434;SDS011;204;48.942;9.256;2022-09-06T06:58:12;9.47;;;7.77;;
434;SDS011;204;48.942;9.256;2022-09-06T07:00:41;11.90;;;8.23;;
434;SDS011;204;48.942;9.256;2022-09-06T07:03:08;7.70;;;7.30;;
434;SDS011;204;48.942;9.256;2022-09-06T07:05:34;9.43;;;6.50;;
434;SDS011;204;48.942;9.256;2022-09-06T07:08:00;8.60;;;8.10;;
434;SDS011;204;48.942;9.256;2022-09-06T07:10:25;7.90;;;7.50;;
434;SDS011;204;48.942;9.256;2022-09-06T07:12:51;7.40;;;7.00;;
434;SDS011;204;48.942;9.256;2022-09-06T07:15:17;7.70;;;7.30;;
434;SDS011;204;48.942;9.256;2022-09-06T07:17:43;8.50;;;6.43;;
434;SDS011;204;48.942;9.256;2022-09-06T07:20:09;8.57;;;7.67;;
434;SDS011;204;48.942;9.256;2022-09-06T07:22:35;9.57;;;7.67;;
434;SDS011;204;48.942;9.256;2022-09-06T07:25:02;9.17;;;8.67;;
434;SDS011;204;48.942;9.256;2022-09-06T07:27:29;9.83;;;7.83;;
434;SDS011;204;48.942;9.256;2022-09-06T07:29:54;7.00;;;6.60;;
434;SDS011;204;48.942;9.256;2022-09-06T07:32:20;7.07;;;6.67;;
434;SDS011;204;48.942;9.256;2022-09-06T07:34:45;8.60;;;8.10;;
434;SDS011;204;48.942;9.256;2022-09-06T07:37:11;14.00;;;7.00;;
434;SDS011;204;48.942;9.256;2022-09-06T07:39:36;8.93;;;7.30;;
434;SDS011;204;48.942;9.256;2022-09-06T07:42:03;7.63;;;6.70;;
434;SDS011;204;48.942;9.256;2022-09-06T07:44:28;7.00;;;6.60;;
434;SDS011;204;48.942;9.256;2022-09-06T07:46:54;5.60;;;5.30;;
434;SDS011;204;48.942;9.256;2022-09-06T07:49:20;5.37;;;5.07;;
434;SDS011;204;48.942;9.256;2022-09-06T07:51:46;9.43;;;6.47;;
434;SDS011;204;48.942;9.256;2022-09-06T07:54:12;8.33;;;5.50;;
434;SDS011;204;48.942;9.256;2022-09-06T07:56:38;5.77;;;5.47;;
434;SDS011;204;48.942;9.256;2022-09-06T07:59:04;5.17;;;4.63;;
434;SDS011;204;48.942;9.256;2022-09-06T08:01:31;6.37;;;6.00;;
434;SDS011;204;48.942;9.256;2022-09-06T08:03:59;5.50;;;5.10;;
434;SDS011;204;48.942;9.256;2022-09-06T08:06:33;5.50;;;5.20;;
434;SDS011;204;48.942;9.256;2022-09-06T08:09:00;5.27;;;4.97;;
434;SDS011;204;48.942;9.256;2022-09-06T08:11:28;5.20;;;4.90;;
434;SDS011;204;48.942;9.256;2022-09-06T08:13:56;7.13;;;4.07;;
434;SDS011;204;48.942;9.256;2022-09-06T08:16:23;4.67;;;4.37;;
434;SDS011;204;48.942;9.256;2022-09-06T08:18:52;4.83;;;4.53;;
434;SDS011;204;48.942;9.256;2022-09-06T08:21:23;5.37;;;4.70;;
434;SDS011;204;48.942;9.256;2022-09-06T08:23:54;5.33;;;4.47;;
434;SDS011;204;48.942;9.256;2022-09-06T08:26:22;5.13;;;4.40;;
434;SDS011;204;48.942;9.256;2022-09-06T08:28:54;8.83;;;5.63;;
434;SDS011;204;48.942;9.256;2022-09-06T08:31:22;5.03;;;4.73;;
434;SDS011;204;48.942;9.256;2022-09-06T08:33:48;8.03;;;5.10;;
434;SDS011;204;48.942;9.256;2022-09-06T08:36:15;27.00;;;13.43;;
434;SDS011;204;48.942;9.256;2022-09-06T08:38:41;7.10;;;6.00;;
434;SDS011;204;48.942;9.256;2022-09-06T08:43:46;6.47;;;6.10;;
434;SDS011;204;48.942;9.256;2022-09-06T08:46:16;4.83;;;4.10;;
434;SDS011;204;48.942;9.256;2022-09-06T08:48:43;5.50;;;4.60;;
434;SDS011;204;48.942;9.256;2022-09-06T08:53:35;5.73;;;5.47;;
434;SDS011;204;48.942;9.256;2022-09-06T08:56:12;4.80;;;4.47;;
434;SDS011;204;48.942;9.256;2022-09-06T09:02:15;4.40;;;4.10;;
434;SDS011;204;48.942;9.256;2022-09-06T09:04:25;5.10;;;4.80;;
434;SDS011;204;48.942;9.256;2022-09-06T09:06:55;25.30;;;13.03;;
434;SDS011;204;48.942;9.256;2022-09-06T09:09:24;23.90;;;13.60;;
434;SDS011;204;48.942;9.256;2022-09-06T09:11:51;16.23;;;8.90;;
434;SDS011;204;48.942;9.256;2022-09-06T09:14:21;6.53;;;4.40;;
434;SDS011;204;48.942;9.256;2022-09-06T09:16:52;4.60;;;3.90;;
434;SDS011;204;48.942;9.256;2022-09-06T09:19:20;6.47;;;4.40;;
434;SDS011;204;48.942;9.256;2022-09-06T09:21:46;5.10;;;3.80;;
434;SDS011;204;48.942;9.256;2022-09-06T09:24:13;6.50;;;3.83;;
434;SDS011;204;48.942;9.256;2022-09-06T09:29:29;6.67;;;5.20;;
434;SDS011;204;48.942;9.256;2022-09-06T09:31:55;5.10;;;4.50;;
434;SDS011;204;48.942;9.256;2022-09-06T09:37:16;4.53;;;3.93;;
434;SDS011;204;48.942;9.256;2022-09-06T09:39:47;6.03;;;4.20;;
434;SDS011;204;48.942;9.256;2022-09-06T09:42:25;4.47;;;4.17;;
434;SDS011;204;48.942;9.256;2022-09-06T09:44:54;4.80;;;3.83;;
434;SDS011;204;48.942;9.256;2022-09-06T09:47:28;6.10;;;4.10;;
434;SDS011;204;48.942;9.256;2022-09-06T09:49:56;6.47;;;4.47;;
434;SDS011;204;48.942;9.256;2022-09-06T09:52:23;5.60;;;4.23;;
434;SDS011;204;48.942;9.256;2022-09-06T09:54:51;5.33;;;3.73;;
434;SDS011;204;48.942;9.256;2022-09-06T09:57:20;5.60;;;4.23;;
434;SDS011;204;48.942;9.256;2022-09-06T10:02:17;4.07;;;3.83;;
434;SDS011;204;48.942;9.256;2022-09-06T10:04:48;10.10;;;7.60;;
434;SDS011;204;48.942;9.256;2022-09-06T10:09:45;5.90;;;5.27;;
434;SDS011;204;48.942;9.256;2022-09-06T10:12:26;8.50;;;4.70;;
434;SDS011;204;48.942;9.256;2022-09-06T10:14:55;8.93;;;4.47;;
434;SDS011;204;48.942;9.256;2022-09-06T10:17:32;6.90;;;4.43;;
434;SDS011;204;48.942;9.256;2022-09-06T10:20:03;5.13;;;4.63;;
434;SDS011;204;48.942;9.256;2022-09-06T10:22:38;5.57;;;5.27;;
434;SDS011;204;48.942;9.256;2022-09-06T10:36:32;5.87;;;4.73;;
434;SDS011;204;48.942;9.256;2022-09-06T10:44:34;6.83;;;4.13;;
434;SDS011;204;48.942;9.256;2022-09-06T10:47:17;6.90;;;4.80;;
434;SDS011;204;48.942;9.256;2022-09-06T10:49:44;5.17;;;3.83;;
434;SDS011;204;48.942;9.256;2022-09-06T10:52:14;4.43;;;3.90;;
434;SDS011;204;48.942;9.256;2022-09-06T10:54:47;6.57;;;4.07;;
434;SDS011;204;48.942;9.256;2022-09-06T10:57:15;7.10;;;3.40;;
434;SDS011;204;48.942;9.256;2022-09-06T11:00:05;6.93;;;3.93;;
434;SDS011;204;48.942;9.256;2022-09-06T11:05:24;4.43;;;4.10;;
434;SDS011;204;48.942;9.256;2022-09-06T11:08:01;5.33;;;3.23;;
434;SDS011;204;48.942;9.256;2022-09-06T11:10:32;4.47;;;3.30;;
434;SDS011;204;48.942;9.256;2022-09-06T11:13:02;4.27;;;3.50;;
434;SDS011;204;48.942;9.256;2022-09-06T11:18:16;4.57;;;3.17;;
434;SDS011;204;48.942;9.256;2022-09-06T11:23:36;7.50;;;3.13;;
434;SDS011;204;48.942;9.256;2022-09-06T11:26:28;6.00;;;3.73;;
434;SDS011;204;48.942;9.256;2022-09-06T11:29:21;7.60;;;3.40;;
434;SDS011;204;48.942;9.256;2022-09-06T11:31:54;6.67;;;3.10;;
434;SDS011;204;48.942;9.256;2022-09-06T11:34:25;3.60;;;2.60;;
434;SDS011;204;48.942;9.256;2022-09-06T11:37:01;3.83;;;3.00;;
434;SDS011;204;48.942;9.256;2022-09-06T11:39:32;4.47;;;3.13;;
434;SDS011;204;48.942;9.256;2022-09-06T11:47:33;3.10;;;2.50;;
434;SDS011;204;48.942;9.256;2022-09-06T11:55:30;5.70;;;2.97;;
434;SDS011;204;48.942;9.256;2022-09-06T11:57:56;3.50;;;2.93;;
434;SDS011;204;48.942;9.256;2022-09-06T12:00:23;4.70;;;2.77;;
434;SDS011;204;48.942;9.256;2022-09-06T12:02:51;8.33;;;2.80;;
434;SDS011;204;48.942;9.256;2022-09-06T12:16:00;5.47;;;4.10;;
434;SDS011;204;48.942;9.256;2022-09-06T12:24:01;6.47;;;2.10;;
434;SDS011;204;48.942;9.256;2022-09-06T12:29:15;3.40;;;2.10;;
434;SDS011;204;48.942;9.256;2022-09-06T12:31:42;2.90;;;2.70;;
434;SDS011;204;48.942;9.256;2022-09-06T12:34:22;2.43;;;2.10;;
434;SDS011;204;48.942;9.256;2022-09-06T12:37:05;4.13;;;2.33;;
434;SDS011;204;48.942;9.256;2022-09-06T12:39:33;4.07;;;3.40;;
434;SDS011;204;48.942;9.256;2022-09-06T12:42:20;3.90;;;3.70;;
434;SDS011;204;48.942;9.256;2022-09-06T12:44:48;4.30;;;2.70;;
434;SDS011;204;48.942;9.256;2022-09-06T12:47:19;5.60;;;5.30;;
434;SDS011;204;48.942;9.256;2022-09-06T12:50:02;6.37;;;3.97;;
434;SDS011;204;48.942;9.256;2022-09-06T12:52:31;2.70;;;2.23;;
434;SDS011;204;48.942;9.256;2022-09-06T12:54:57;4.57;;;4.03;;
434;SDS011;204;48.942;9.256;2022-09-06T12:57:23;7.30;;;4.27;;
434;SDS011;204;48.942;9.256;2022-09-06T12:59:54;3.13;;;2.37;;
434;SDS011;204;48.942;9.256;2022-09-06T13:02:37;3.00;;;2.27;;
434;SDS011;204;48.942;9.256;2022-09-06T13:05:10;3.17;;;2.73;;
434;SDS011;204;48.942;9.256;2022-09-06T13:07:42;4.27;;;2.90;;
434;SDS011;204;48.942;9.256;2022-09-06T13:10:11;3.23;;;2.57;;
434;SDS011;204;48.942;9.256;2022-09-06T13:12:41;5.23;;;2.90;;
434;SDS011;204;48.942;9.256;2022-09-06T13:15:13;5.80;;;2.67;;
434;SDS011;204;48.942;9.256;2022-09-06T13:17:43;4.90;;;3.20;;
434;SDS011;204;48.942;9.256;2022-09-06T13:20:10;8.40;;;3.47;;
434;SDS011;204;48.942;9.256;2022-09-06T13:22:47;4.93;;;3.50;;
434;SDS011;204;48.942;9.256;2022-09-06T13:25:16;3.97;;;2.97;;
434;SDS011;204;48.942;9.256;2022-09-06T13:27:49;5.23;;;3.50;;
434;SDS011;204;48.942;9.256;2022-09-06T13:30:28;4.57;;;3.47;;
434;SDS011;204;48.942;9.256;2022-09-06T13:32:56;5.37;;;3.23;;
434;SDS011;204;48.942;9.256;2022-09-06T13:35:22;5.07;;;3.00;;
434;SDS011;204;48.942;9.256;2022-09-06T13:37:49;4.13;;;3.57;;
434;SDS011;204;48.942;9.256;2022-09-06T13:43:19;3.57;;;3.37;;
434;SDS011;204;48.942;9.256;2022-09-06T13:45:46;3.57;;;3.37;;
434;SDS011;204;48.942;9.256;2022-09-06T13:48:12;5.43;;;3.40;;
434;SDS011;204;48.942;9.256;2022-09-06T13:50:38;6.40;;;3.00;;
434;SDS011;204;48.942;9.256;2022-09-06T13:53:04;4.27;;;3.33;;
434;SDS011;204;48.942;9.256;2022-09-06T13:55:30;6.03;;;3.57;;
434;SDS011;204;48.942;9.256;2022-09-06T13:57:57;9.13;;;4.10;;
434;SDS011;204;48.942;9.256;2022-09-06T14:00:23;3.37;;;3.10;;
434;SDS011;204;48.942;9.256;2022-09-06T14:02:48;3.70;;;2.70;;
434;SDS011;204;48.942;9.256;2022-09-06T14:05:15;7.93;;;3.47;;
434;SDS011;204;48.942;9.256;2022-09-06T14:07:42;7.37;;;3.80;;
434;SDS011;204;48.942;9.256;2022-09-06T14:10:08;5.93;;;3.27;;
434;SDS011;204;48.942;9.256;2022-09-06T14:12:35;3.10;;;2.43;;
434;SDS011;204;48.942;9.256;2022-09-06T14:15:02;4.07;;;3.30;;
434;SDS011;204;48.942;9.256;2022-09-06T14:17:28;5.27;;;3.43;;
434;SDS011;204;48.942;9.256;2022-09-06T14:19:54;6.00;;;3.73;;
434;SDS011;204;48.942;9.256;2022-09-06T14:22:20;3.83;;;3.67;;
434;SDS011;204;48.942;9.256;2022-09-06T14:24:45;3.73;;;3.00;;
434;SDS011;204;48.942;9.256;2022-09-06T14:27:12;3.43;;;3.20;;
434;SDS011;204;48.942;9.256;2022-09-06T14:29:38;5.07;;;3.43;;
434;SDS011;204;48.942;9.256;2022-09-06T14:32:04;3.50;;;3.30;;
434;SDS011;204;48.942;9.256;2022-09-06T14:34:29;6.10;;;3.37;;
434;SDS011;204;48.942;9.256;2022-09-06T14:36:55;6.83;;;3.20;;
434;SDS011;204;48.942;9.256;2022-09-06T14:39:21;5.50;;;3.33;;
434;SDS011;204;48.942;9.256;2022-09-06T14:41:46;3.70;;;3.20;;
434;SDS011;204;48.942;9.256;2022-09-06T14:44:12;3.97;;;3.20;;
434;SDS011;204;48.942;9.256;2022-09-06T14:46:38;6.10;;;5.27;;
434;SDS011;204;48.942;9.256;2022-09-06T14:49:04;4.47;;;3.60;;
434;SDS011;204;48.942;9.256;2022-09-06T14:51:33;4.10;;;3.63;;
434;SDS011;204;48.942;9.256;2022-09-06T14:54:03;7.63;;;3.67;;
434;SDS011;204;48.942;9.256;2022-09-06T14:56:32;6.00;;;4.00;;
434;SDS011;204;48.942;9.256;2022-09-06T14:58:58;3.80;;;3.40;;
434;SDS011;204;48.942;9.256;2022-09-06T15:01:24;6.27;;;3.60;;
434;SDS011;204;48.942;9.256;2022-09-06T15:03:53;3.70;;;2.70;;
434;SDS011;204;48.942;9.256;2022-09-06T15:06:21;4.07;;;2.87;;
434;SDS011;204;48.942;9.256;2022-09-06T15:08:48;12.07;;;7.13;;
434;SDS011;204;48.942;9.256;2022-09-06T15:11:25;6.60;;;4.00;;
434;SDS011;204;48.942;9.256;2022-09-06T15:13:53;6.07;;;3.47;;
434;SDS011;204;48.942;9.256;2022-09-06T15:16:19;5.50;;;4.53;;
434;SDS011;204;48.942;9.256;2022-09-06T15:18:45;4.60;;;3.23;;
434;SDS011;204;48.942;9.256;2022-09-06T15:21:11;7.70;;;3.40;;
434;SDS011;204;48.942;9.256;2022-09-06T15:23:38;4.10;;;2.50;;
434;SDS011;204;48.942;9.256;2022-09-06T15:26:05;7.00;;;2.90;;
434;SDS011;204;48.942;9.256;2022-09-06T15:28:36;5.93;;;3.57;;
434;SDS011;204;48.942;9.256;2022-09-06T15:31:03;5.17;;;3.07;;
434;SDS011;204;48.942;9.256;2022-09-06T15:33:30;4.57;;;3.00;;
434;SDS011;204;48.942;9.256;2022-09-06T15:35:57;4.10;;;3.27;;
434;SDS011;204;48.942;9.256;2022-09-06T15:38:24;3.63;;;2.67;;
434;SDS011;204;48.942;9.256;2022-09-06T15:40:50;2.90;;;2.57;;
434;SDS011;204;48.942;9.256;2022-09-06T15:43:16;8.83;;;2.83;;
434;SDS011;204;48.942;9.256;2022-09-06T15:45:46;3.50;;;2.70;;
434;SDS011;204;48.942;9.256;2022-09-06T15:48:14;5.97;;;3.17;;
434;SDS011;204;48.942;9.256;2022-09-06T15:50:44;6.37;;;2.67;;
434;SDS011;204;48.942;9.256;2022-09-06T15:53:10;4.67;;;2.90;;
434;SDS011;204;48.942;9.256;2022-09-06T15:55:35;2.67;;;2.47;;
434;SDS011;204;48.942;9.256;2022-09-06T15:58:20;4.63;;;2.20;;
434;SDS011;204;48.942;9.256;2022-09-06T16:00:46;6.27;;;2.60;;
434;SDS011;204;48.942;9.256;2022-09-06T16:03:23;2.37;;;2.10;;
434;SDS011;204;48.942;9.256;2022-09-06T16:05:49;3.80;;;2.23;;
434;SDS011;204;48.942;9.256;2022-09-06T16:08:14;4.70;;;2.97;;
434;SDS011;204;48.942;9.256;2022-09-06T16:10:40;5.90;;;3.70;;
434;SDS011;204;48.942;9.256;2022-09-06T16:13:05;6.60;;;4.37;;
434;SDS011;204;48.942;9.256;2022-09-06T16:15:31;7.90;;;4.47;;
434;SDS011;204;48.942;9.256;2022-09-06T16:17:57;4.63;;;3.23;;
434;SDS011;204;48.942;9.256;2022-09-06T16:20:27;6.97;;;3.40;;
434;SDS011;204;48.942;9.256;2022-09-06T16:22:53;2.97;;;2.43;;
434;SDS011;204;48.942;9.256;2022-09-06T16:25:19;5.90;;;2.70;;
434;SDS011;204;48.942;9.256;2022-09-06T16:27:45;4.60;;;2.80;;
434;SDS011;204;48.942;9.256;2022-09-06T16:30:10;2.33;;;2.13;;
434;SDS011;204;48.942;9.256;2022-09-06T16:32:36;2.87;;;2.57;;
434;SDS011;204;48.942;9.256;2022-09-06T16:35:02;3.40;;;2.37;;
434;SDS011;204;48.942;9.256;2022-09-06T16:37:29;2.60;;;2.33;;
434;SDS011;204;48.942;9.256;2022-09-06T16:39:56;4.07;;;2.20;;
434;SDS011;204;48.942;9.256;2022-09-06T16:42:22;4.60;;;2.60;;
434;SDS011;204;48.942;9.256;2022-09-06T16:44:47;4.47;;;2.67;;
434;SDS011;204;48.942;9.256;2022-09-06T16:47:13;4.00;;;2.70;;
434;SDS011;204;48.942;9.256;2022-09-06T16:49:39;4.93;;;2.10;;
434;SDS011;204;48.942;9.256;2022-09-06T16:52:05;2.60;;;2.00;;
434;SDS011;204;48.942;9.256;2022-09-06T16:54:30;3.83;;;2.77;;
434;SDS011;204;48.942;9.256;2022-09-06T16:56:56;2.47;;;1.73;;
434;SDS011;204;48.942;9.256;2022-09-06T16:59:21;4.07;;;2.30;;
434;SDS011;204;48.942;9.256;2022-09-06T17:01:47;6.97;;;2.37;;
434;SDS011;204;48.942;9.256;2022-09-06T17:04:13;3.80;;;2.20;;
434;SDS011;204;48.942;9.256;2022-09-06T17:06:39;5.07;;;3.13;;
434;SDS011;204;48.942;9.256;2022-09-06T17:09:11;5.80;;;2.20;;
434;SDS011;204;48.942;9.256;2022-09-06T17:11:38;4.37;;;2.73;;
434;SDS011;204;48.942;9.256;2022-09-06T17:14:04;2.90;;;2.60;;
434;SDS011;204;48.942;9.256;2022-09-06T17:16:30;3.43;;;3.17;;
434;SDS011;204;48.942;9.256;2022-09-06T17:19:14;3.07;;;2.87;;
434;SDS011;204;48.942;9.256;2022-09-06T17:21:40;4.70;;;2.77;;
434;SDS011;204;48.942;9.256;2022-09-06T17:24:06;5.13;;;3.20;;
434;SDS011;204;48.942;9.256;2022-09-06T17:26:33;4.73;;;2.60;;
434;SDS011;204;48.942;9.256;2022-09-06T17:29:00;6.50;;;2.40;;
434;SDS011;204;48.942;9.256;2022-09-06T17:31:26;3.90;;;3.30;;
434;SDS011;204;48.942;9.256;2022-09-06T17:33:52;5.90;;;3.07;;